createdAt,value
2023-05-18T00:00:10.891Z,4.32
2023-05-18T00:02:38.308Z,3.83
2023-05-18T00:05:05.516Z,4.22
2023-05-18T00:07:34.009Z,4.32
2023-05-18T00:10:01.634Z,4.07
2023-05-18T00:12:28.585Z,4.40
2023-05-18T00:14:55.472Z,4.20
2023-05-18T00:17:22.248Z,3.95
2023-05-18T00:19:50.284Z,4.60
2023-05-18T00:22:20.106Z,4.60
2023-05-18T00:24:47.527Z,4.30
2023-05-18T00:27:15.156Z,4.70
2023-05-18T00:29:41.949Z,4.85
2023-05-18T00:32:08.766Z,4.15
2023-05-18T00:34:37.230Z,4.53
2023-05-18T00:37:04.119Z,4.35
2023-05-18T00:39:30.844Z,4.22
2023-05-18T00:41:57.584Z,4.63
2023-05-18T00:46:52.060Z,4.80
2023-05-18T00:49:19.344Z,4.78
2023-05-18T00:51:46.518Z,4.60
2023-05-18T00:54:14.262Z,4.55
2023-05-18T00:56:42.194Z,4.35
2023-05-18T00:59:10.449Z,4.70
2023-05-18T01:01:43.420Z,4.45
2023-05-18T01:04:14.046Z,4.38
2023-05-18T01:06:41.937Z,4.20
2023-05-18T01:09:12.031Z,4.20
2023-05-18T01:11:57.366Z,5.75
2023-05-18T01:14:34.433Z,4.70
2023-05-18T01:17:33.442Z,4.37
2023-05-18T01:20:23.866Z,4.60
2023-05-18T01:23:44.913Z,5.35
2023-05-18T01:26:16.742Z,4.40
2023-05-18T01:28:46.533Z,5.25
2023-05-18T01:31:16.093Z,5.15
2023-05-18T01:33:44.198Z,5.28
2023-05-18T01:36:11.366Z,5.18
2023-05-18T01:38:40.086Z,5.38
2023-05-18T01:41:19.090Z,4.68
2023-05-18T01:46:43.807Z,5.85
2023-05-18T01:49:17.338Z,6.60
2023-05-18T01:51:46.494Z,6.57
2023-05-18T01:54:36.441Z,5.38
2023-05-18T01:57:08.297Z,5.80
2023-05-18T01:59:36.507Z,5.63
2023-05-18T02:02:04.227Z,5.95
2023-05-18T02:04:31.098Z,5.70
2023-05-18T02:06:57.895Z,5.45
2023-05-18T02:09:24.716Z,5.28
2023-05-18T02:11:51.544Z,6.47
2023-05-18T02:14:18.384Z,6.22
2023-05-18T02:16:53.043Z,6.05
2023-05-18T02:19:21.821Z,6.15
2023-05-18T02:21:48.868Z,6.50
2023-05-18T02:24:15.737Z,6.15
2023-05-18T02:26:42.526Z,5.97
2023-05-18T02:29:12.117Z,6.38
2023-05-18T02:31:39.155Z,6.65
2023-05-18T02:34:06.303Z,7.18
2023-05-18T02:36:40.156Z,7.03
2023-05-18T02:39:07.707Z,6.53
2023-05-18T02:41:35.087Z,6.82
2023-05-18T02:44:05.579Z,6.90
2023-05-18T02:46:32.716Z,6.65
2023-05-18T02:48:59.667Z,6.97
2023-05-18T02:51:26.695Z,7.10
2023-05-18T02:53:53.473Z,6.97
2023-05-18T02:56:20.608Z,7.25
2023-05-18T02:59:05.586Z,6.72
2023-05-18T03:01:37.681Z,6.38
2023-05-18T03:04:04.506Z,5.70
2023-05-18T03:06:31.527Z,6.10
2023-05-18T03:08:59.061Z,5.90
2023-05-18T03:11:34.030Z,5.10
2023-05-18T03:16:28.572Z,5.07
2023-05-18T03:18:58.845Z,4.93
2023-05-18T03:21:33.654Z,5.18
2023-05-18T03:24:00.733Z,4.88
2023-05-18T03:26:30.756Z,5.13
2023-05-18T03:28:58.135Z,5.38
2023-05-18T03:31:25.802Z,5.30
2023-05-18T03:33:54.184Z,5.20
2023-05-18T03:36:22.527Z,5.03
2023-05-18T03:38:49.367Z,5.22
2023-05-18T03:41:16.596Z,5.20
2023-05-18T03:43:43.329Z,5.68
2023-05-18T03:46:10.648Z,5.30
2023-05-18T03:48:37.512Z,5.32
2023-05-18T03:51:05.104Z,5.38
2023-05-18T03:53:33.767Z,4.93
2023-05-18T03:56:00.631Z,4.80
2023-05-18T03:58:27.565Z,5.40
2023-05-18T04:00:54.799Z,6.00
2023-05-18T04:03:24.757Z,5.28
2023-05-18T04:05:51.849Z,5.40
2023-05-18T04:08:19.195Z,5.20
2023-05-18T04:13:12.925Z,5.30
2023-05-18T04:15:39.682Z,5.35
2023-05-18T04:18:06.574Z,5.32
2023-05-18T04:20:33.358Z,5.07
2023-05-18T04:23:01.060Z,4.60
2023-05-18T04:25:28.405Z,5.18
2023-05-18T04:27:56.871Z,4.95
2023-05-18T04:30:27.209Z,4.93
2023-05-18T04:32:54.601Z,4.90
2023-05-18T04:35:21.597Z,5.60
2023-05-18T04:37:48.339Z,5.60
2023-05-18T04:40:18.071Z,5.50
2023-05-18T04:42:47.918Z,5.60
2023-05-18T04:45:19.388Z,4.90
2023-05-18T04:47:53.043Z,5.13
2023-05-18T04:50:23.745Z,5.03
2023-05-18T04:52:51.825Z,4.75
2023-05-18T04:55:29.286Z,5.20
2023-05-18T04:58:06.053Z,5.97
2023-05-18T05:00:32.902Z,5.95
2023-05-18T05:02:59.856Z,7.10
2023-05-18T05:05:27.402Z,5.97
2023-05-18T05:07:54.604Z,5.75
2023-05-18T05:10:21.549Z,5.40
2023-05-18T05:12:52.197Z,5.28
2023-05-18T05:15:19.343Z,5.50
2023-05-18T05:17:50.129Z,4.88
2023-05-18T05:20:17.810Z,4.93
2023-05-18T05:25:13.870Z,4.75
2023-05-18T05:27:40.823Z,4.93
2023-05-18T05:30:08.532Z,4.45
2023-05-18T05:32:37.319Z,4.40
2023-05-18T05:35:06.049Z,4.40
2023-05-18T05:37:33.586Z,4.90
2023-05-18T05:40:00.386Z,5.00
2023-05-18T05:42:29.950Z,4.25
2023-05-18T05:44:56.864Z,4.43
2023-05-18T05:47:25.644Z,4.03
2023-05-18T05:49:52.890Z,4.22
2023-05-18T05:52:20.324Z,4.18
2023-05-18T05:54:47.641Z,4.60
2023-05-18T05:57:15.173Z,4.20
2023-05-18T05:59:42.289Z,4.72
2023-05-18T06:02:09.057Z,4.72
2023-05-18T06:04:36.226Z,5.35
2023-05-18T06:07:03.299Z,4.85
2023-05-18T06:09:30.402Z,4.78
2023-05-18T06:11:57.189Z,4.50
2023-05-18T06:14:25.993Z,4.63
2023-05-18T06:16:53.813Z,4.57
2023-05-18T06:19:21.041Z,4.45
2023-05-18T06:21:48.199Z,4.40
2023-05-18T06:27:02.625Z,4.90
2023-05-18T06:29:49.632Z,5.32
2023-05-18T06:32:39.080Z,5.35
2023-05-18T06:35:06.383Z,5.00
2023-05-18T06:37:33.474Z,5.22
2023-05-18T06:40:00.367Z,5.20
2023-05-18T06:42:27.203Z,6.20
2023-05-18T06:45:03.930Z,5.60
2023-05-18T06:47:50.349Z,4.00
2023-05-18T06:50:17.330Z,6.15
2023-05-18T06:52:44.930Z,6.40
2023-05-18T06:55:12.066Z,6.35
2023-05-18T06:57:38.854Z,6.90
2023-05-18T07:00:07.683Z,6.55
2023-05-18T07:02:34.799Z,6.25
2023-05-18T07:05:05.470Z,6.22
2023-05-18T07:07:32.326Z,6.82
2023-05-18T07:09:59.244Z,6.43
2023-05-18T07:12:27.308Z,7.18
2023-05-18T07:14:54.159Z,6.00
2023-05-18T07:17:21.013Z,5.70
2023-05-18T07:19:48.797Z,5.68
2023-05-18T07:22:15.504Z,5.20
2023-05-18T07:24:43.173Z,6.60
2023-05-18T07:27:09.953Z,5.57
2023-05-18T07:29:36.791Z,5.25
2023-05-18T07:32:03.729Z,5.05
2023-05-18T07:34:31.922Z,5.15
2023-05-18T07:36:58.772Z,4.30
2023-05-18T07:39:28.860Z,4.32
2023-05-18T07:41:56.271Z,4.28
2023-05-18T07:46:49.810Z,4.82
2023-05-18T07:49:16.657Z,4.88
2023-05-18T07:51:43.444Z,4.28
2023-05-18T07:54:10.217Z,3.92
2023-05-18T07:56:36.976Z,4.10
2023-05-18T07:59:03.727Z,3.88
2023-05-18T08:01:32.079Z,4.18
2023-05-18T08:03:58.863Z,3.72
2023-05-18T08:06:26.105Z,4.03
2023-05-18T08:08:52.944Z,3.67
2023-05-18T08:11:19.699Z,3.53
2023-05-18T08:13:46.456Z,3.47
2023-05-18T08:16:13.356Z,3.75
2023-05-18T08:18:40.899Z,3.60
2023-05-18T08:21:09.923Z,2.92
2023-05-18T08:23:37.328Z,3.40
2023-05-18T08:26:04.243Z,3.47
2023-05-18T08:28:31.657Z,3.72
2023-05-18T08:30:58.640Z,3.25
2023-05-18T08:33:25.862Z,3.25
2023-05-18T08:38:19.499Z,6.03
2023-05-18T08:41:11.183Z,2.90
2023-05-18T08:43:40.158Z,3.03
2023-05-18T08:46:13.546Z,2.35
2023-05-18T08:48:43.749Z,3.10
2023-05-18T08:51:11.060Z,2.70
2023-05-18T08:56:05.421Z,2.90
2023-05-18T08:58:37.758Z,2.50
2023-05-18T09:01:04.884Z,2.95
2023-05-18T09:03:32.392Z,2.90
2023-05-18T09:06:00.843Z,3.60
2023-05-18T09:08:29.231Z,3.15
2023-05-18T09:10:58.443Z,3.08
2023-05-18T09:13:26.930Z,4.00
2023-05-18T09:15:54.058Z,3.60
2023-05-18T09:18:23.535Z,3.60
2023-05-18T09:20:51.876Z,3.45
2023-05-18T09:25:47.029Z,3.08
2023-05-18T09:28:16.438Z,3.20
2023-05-18T09:30:43.800Z,3.00
2023-05-18T09:35:49.542Z,2.80
2023-05-18T09:38:22.156Z,3.10
2023-05-18T09:40:50.380Z,3.30
2023-05-18T09:43:18.996Z,3.45
2023-05-18T09:45:48.405Z,3.28
2023-05-18T09:48:18.077Z,3.45
2023-05-18T09:50:45.843Z,2.97
2023-05-18T09:53:14.301Z,3.17
2023-05-18T09:55:49.535Z,3.00
2023-05-18T09:58:16.861Z,3.03
2023-05-18T10:03:23.017Z,2.80
2023-05-18T10:05:50.263Z,2.97
2023-05-18T10:10:49.680Z,2.95
2023-05-18T10:13:19.990Z,2.83
2023-05-18T10:15:58.879Z,2.80
2023-05-18T10:18:27.841Z,2.90
2023-05-18T10:20:59.165Z,2.90
2023-05-18T10:23:30.400Z,2.60
2023-05-18T10:25:58.205Z,2.75
2023-05-18T10:28:32.866Z,2.53
2023-05-18T10:31:00.629Z,2.60
2023-05-18T10:33:29.971Z,2.55
2023-05-18T10:35:57.937Z,2.55
2023-05-18T10:38:26.845Z,2.45
2023-05-18T10:40:56.504Z,2.63
2023-05-18T10:43:27.523Z,2.47
2023-05-18T10:45:59.669Z,2.83
2023-05-18T10:48:28.937Z,2.20
2023-05-18T10:50:57.473Z,2.42
2023-05-18T10:53:26.917Z,2.60
2023-05-18T10:55:54.769Z,2.80
2023-05-18T10:58:27.758Z,2.72
2023-05-18T11:00:57.875Z,2.47
2023-05-18T11:03:27.132Z,2.47
2023-05-18T11:06:11.233Z,3.55
2023-05-18T11:08:48.358Z,2.55
2023-05-18T11:11:17.964Z,3.00
2023-05-18T11:13:49.159Z,2.50
2023-05-18T11:16:16.841Z,2.70
2023-05-18T11:18:51.677Z,2.90
2023-05-18T11:21:24.540Z,2.92
2023-05-18T11:24:13.581Z,2.80
2023-05-18T11:26:42.961Z,2.60
2023-05-18T11:29:21.879Z,2.67
2023-05-18T11:31:53.779Z,2.45
2023-05-18T11:34:47.701Z,3.25
2023-05-18T11:37:37.650Z,3.00
2023-05-18T11:40:12.892Z,2.80
2023-05-18T11:42:39.683Z,2.13
2023-05-18T11:45:08.133Z,2.55
2023-05-18T11:47:36.560Z,2.45
2023-05-18T11:50:07.150Z,2.40
2023-05-18T11:52:44.478Z,3.13
2023-05-18T11:55:15.269Z,3.15
2023-05-18T11:57:47.624Z,3.05
2023-05-18T12:00:16.094Z,2.40
2023-05-18T12:02:45.226Z,2.88
2023-05-18T12:05:13.340Z,2.42
2023-05-18T12:07:41.349Z,2.63
2023-05-18T12:10:14.501Z,2.65
2023-05-18T12:12:41.878Z,2.83
2023-05-18T12:17:40.999Z,2.80
2023-05-18T12:20:09.829Z,3.00
2023-05-18T12:22:37.372Z,2.97
2023-05-18T12:25:04.301Z,3.00
2023-05-18T12:27:31.044Z,2.72
2023-05-18T12:29:57.808Z,2.55
2023-05-18T12:32:24.735Z,3.13
2023-05-18T12:34:51.841Z,2.72
2023-05-18T12:37:19.504Z,3.10
2023-05-18T12:39:52.326Z,2.78
2023-05-18T12:42:19.051Z,2.80
2023-05-18T12:44:46.125Z,3.05
2023-05-18T12:47:13.704Z,2.60
2023-05-18T12:49:42.591Z,3.05
2023-05-18T12:52:11.566Z,2.92
2023-05-18T12:54:49.653Z,2.80
2023-05-18T12:57:16.642Z,2.70
2023-05-18T12:59:50.205Z,2.83
2023-05-18T13:02:36.589Z,2.70
2023-05-18T13:05:12.027Z,2.83
2023-05-18T13:07:46.257Z,3.08
2023-05-18T13:10:17.274Z,2.88
2023-05-18T13:12:51.128Z,2.90
2023-05-18T13:15:21.690Z,3.28
2023-05-18T13:17:59.148Z,3.25
2023-05-18T13:20:36.290Z,2.70
2023-05-18T13:23:09.294Z,2.90
2023-05-18T13:25:36.187Z,3.45
2023-05-18T13:28:04.184Z,3.00
2023-05-18T13:30:31.068Z,2.97
2023-05-18T13:32:58.524Z,3.10
2023-05-18T13:37:52.550Z,3.58
2023-05-18T13:42:47.797Z,2.88
2023-05-18T13:45:16.279Z,3.53
2023-05-18T13:47:45.708Z,3.15
2023-05-18T13:50:12.545Z,3.40
2023-05-18T13:52:39.267Z,3.22
2023-05-18T13:55:07.646Z,3.20
2023-05-18T13:57:34.852Z,3.15
2023-05-18T14:00:14.409Z,3.42
2023-05-18T14:02:42.606Z,2.95
2023-05-18T14:05:10.664Z,2.60
2023-05-18T14:07:42.738Z,3.33
2023-05-18T14:10:11.036Z,3.40
2023-05-18T14:12:38.379Z,3.22
2023-05-18T14:17:35.407Z,3.00
2023-05-18T14:20:04.627Z,2.97
2023-05-18T14:22:31.624Z,2.47
2023-05-18T14:24:58.462Z,2.55
2023-05-18T14:27:25.172Z,2.88
2023-05-18T14:29:51.859Z,3.38
2023-05-18T14:32:20.930Z,2.95
2023-05-18T14:34:51.540Z,2.97
2023-05-18T14:37:18.830Z,3.15
2023-05-18T14:42:12.603Z,3.03
2023-05-18T14:44:39.365Z,2.85
2023-05-18T14:47:06.340Z,2.97
2023-05-18T14:49:33.390Z,3.55
2023-05-18T14:52:00.157Z,3.28
2023-05-18T14:54:26.902Z,3.20
2023-05-18T14:56:53.643Z,3.28
2023-05-18T14:59:21.394Z,3.08
2023-05-18T15:01:48.273Z,3.20
2023-05-18T15:04:15.221Z,3.30
2023-05-18T15:06:42.139Z,2.47
2023-05-18T15:09:09.933Z,3.63
2023-05-18T15:11:36.674Z,3.40
2023-05-18T15:14:03.405Z,3.92
2023-05-18T15:16:30.206Z,3.13
2023-05-18T15:18:57.047Z,3.10
2023-05-18T15:21:24.069Z,3.20
2023-05-18T15:23:50.987Z,3.30
2023-05-18T15:26:17.737Z,3.63
2023-05-18T15:28:45.028Z,2.80
2023-05-18T15:31:12.043Z,3.33
2023-05-18T15:33:42.339Z,3.30
2023-05-18T15:36:09.798Z,4.45
2023-05-18T15:38:36.567Z,3.75
2023-05-18T15:41:03.502Z,4.22
2023-05-18T15:43:30.971Z,3.42
2023-05-18T15:45:58.678Z,3.45
2023-05-18T15:48:25.735Z,3.30
2023-05-18T15:50:52.537Z,3.58
2023-05-18T15:53:19.230Z,3.42
2023-05-18T15:55:46.051Z,3.42
2023-05-18T15:58:16.356Z,4.30
2023-05-18T16:00:43.237Z,3.40
2023-05-18T16:03:10.083Z,3.13
2023-05-18T16:05:37.232Z,3.35
2023-05-18T16:08:03.997Z,4.25
2023-05-18T16:10:30.885Z,3.50
2023-05-18T16:13:05.492Z,3.10
2023-05-18T16:15:35.700Z,3.80
2023-05-18T16:18:02.552Z,3.63
2023-05-18T16:20:29.895Z,3.15
2023-05-18T16:22:57.133Z,3.58
2023-05-18T16:25:24.272Z,3.28
2023-05-18T16:27:51.025Z,4.20
2023-05-18T16:30:18.125Z,3.70
2023-05-18T16:32:45.185Z,4.07
2023-05-18T16:35:12.299Z,3.88
2023-05-18T16:37:39.550Z,3.85
2023-05-18T16:42:33.678Z,3.60
2023-05-18T16:45:00.736Z,4.13
2023-05-18T16:47:27.570Z,3.97
2023-05-18T16:49:54.649Z,3.92
2023-05-18T16:52:21.564Z,4.15
2023-05-18T16:54:48.485Z,3.95
2023-05-18T16:57:15.602Z,4.45
2023-05-18T16:59:42.521Z,3.58
2023-05-18T17:02:13.167Z,3.92
2023-05-18T17:04:45.699Z,4.25
2023-05-18T17:07:12.653Z,4.03
2023-05-18T17:09:41.455Z,3.83
2023-05-18T17:12:12.023Z,4.38
2023-05-18T17:14:38.944Z,4.50
2023-05-18T17:17:06.619Z,4.00
2023-05-18T17:19:35.016Z,4.32
2023-05-18T17:22:02.843Z,4.18
2023-05-18T17:24:29.614Z,4.20
2023-05-18T17:26:56.347Z,4.13
2023-05-18T17:29:23.393Z,4.55
2023-05-18T17:31:50.232Z,3.95
2023-05-18T17:34:16.964Z,4.15
2023-05-18T17:36:44.647Z,5.22
2023-05-18T17:39:11.577Z,4.82
2023-05-18T17:41:38.373Z,5.47
2023-05-18T17:44:05.240Z,5.25
2023-05-18T17:46:32.215Z,5.05
2023-05-18T17:49:01.945Z,4.28
2023-05-18T17:51:28.721Z,4.57
2023-05-18T17:53:56.494Z,4.97
2023-05-18T17:56:24.779Z,4.63
2023-05-18T17:58:53.146Z,4.43
2023-05-18T18:01:20.143Z,3.90
2023-05-18T18:03:48.237Z,3.80
2023-05-18T18:06:15.213Z,3.40
2023-05-18T18:08:42.831Z,4.03
2023-05-18T18:11:09.676Z,3.42
2023-05-18T18:13:36.484Z,3.72
2023-05-18T18:16:03.299Z,3.70
2023-05-18T18:18:30.390Z,3.70
2023-05-18T18:20:57.131Z,3.05
2023-05-18T18:23:23.935Z,3.03
2023-05-18T18:25:50.685Z,2.90
2023-05-18T18:28:17.501Z,3.58
2023-05-18T18:30:44.760Z,3.00
2023-05-18T18:35:38.620Z,3.80
2023-05-18T18:38:05.446Z,3.03
2023-05-18T18:40:33.802Z,3.42
2023-05-18T18:43:00.838Z,3.10
2023-05-18T18:45:29.938Z,3.08
2023-05-18T18:47:56.741Z,2.97
2023-05-18T18:50:23.594Z,3.50
2023-05-18T18:52:50.423Z,2.88
2023-05-18T18:55:17.737Z,3.40
2023-05-18T19:00:11.888Z,3.63
2023-05-18T19:02:39.000Z,2.88
2023-05-18T19:05:06.691Z,2.83
2023-05-18T19:07:34.112Z,2.92
2023-05-18T19:10:00.810Z,3.38
2023-05-18T19:12:27.694Z,2.45
2023-05-18T19:14:54.389Z,3.78
2023-05-18T19:17:21.657Z,3.35
2023-05-18T19:22:15.238Z,2.83
2023-05-18T19:24:42.768Z,2.63
2023-05-18T19:27:09.495Z,2.95
2023-05-18T19:29:37.368Z,2.90
2023-05-18T19:32:05.535Z,2.90
2023-05-18T19:34:32.376Z,2.90
2023-05-18T19:36:59.079Z,2.88
2023-05-18T19:39:25.876Z,3.17
2023-05-18T19:41:52.644Z,2.40
2023-05-18T19:44:19.386Z,2.88
2023-05-18T19:46:46.206Z,3.10
2023-05-18T19:49:12.932Z,3.13
2023-05-18T19:51:39.665Z,3.17
2023-05-18T19:54:06.404Z,3.00
2023-05-18T19:56:35.978Z,2.75
2023-05-18T19:59:02.756Z,2.92
2023-05-18T20:01:29.671Z,2.53
2023-05-18T20:03:56.858Z,2.35
2023-05-18T20:06:23.726Z,2.58
2023-05-18T20:08:50.436Z,2.47
2023-05-18T20:11:18.601Z,2.75
2023-05-18T20:13:46.068Z,2.40
2023-05-18T20:16:13.670Z,2.88
2023-05-18T20:18:40.666Z,2.90
2023-05-18T20:21:07.615Z,2.38
2023-05-18T20:23:34.392Z,2.92
2023-05-18T20:26:01.452Z,2.55
2023-05-18T20:28:30.971Z,3.13
2023-05-18T20:30:59.056Z,3.10
2023-05-18T20:33:25.933Z,2.83
2023-05-18T20:35:52.690Z,3.33
2023-05-18T20:38:19.452Z,2.50
2023-05-18T20:40:48.967Z,2.78
2023-05-18T20:43:17.678Z,2.90
2023-05-18T20:45:46.480Z,2.80
2023-05-18T20:48:18.100Z,2.60
2023-05-18T20:50:44.919Z,2.63
2023-05-18T20:53:11.678Z,2.78
2023-05-18T20:55:38.705Z,2.50
2023-05-18T20:58:05.608Z,2.80
2023-05-18T21:00:32.613Z,2.65
2023-05-18T21:03:04.068Z,2.95
2023-05-18T21:05:34.647Z,3.10
2023-05-18T21:08:01.726Z,2.78
2023-05-18T21:10:28.459Z,3.67
2023-05-18T21:12:55.457Z,4.18
2023-05-18T21:15:22.155Z,3.50
2023-05-18T21:17:48.964Z,2.83
2023-05-18T21:20:15.750Z,3.33
2023-05-18T21:22:42.470Z,2.85
2023-05-18T21:25:09.253Z,3.13
2023-05-18T21:27:37.223Z,3.00
2023-05-18T21:30:04.473Z,2.78
2023-05-18T21:34:58.228Z,3.45
2023-05-18T21:37:25.517Z,4.05
2023-05-18T21:42:19.007Z,2.42
2023-05-18T21:44:45.779Z,3.30
2023-05-18T21:47:12.506Z,2.97
2023-05-18T21:49:39.284Z,3.47
2023-05-18T21:52:06.030Z,3.00
2023-05-18T21:54:33.527Z,2.72
2023-05-18T21:57:00.533Z,3.13
2023-05-18T21:59:27.304Z,3.08
2023-05-18T22:01:54.053Z,2.67
2023-05-18T22:04:20.811Z,3.13
2023-05-18T22:06:47.651Z,3.08
2023-05-18T22:09:14.372Z,3.55
2023-05-18T22:11:41.099Z,3.45
2023-05-18T22:14:07.875Z,3.75
2023-05-18T22:16:34.661Z,3.35
2023-05-18T22:19:01.420Z,3.42
2023-05-18T22:21:28.138Z,3.60
2023-05-18T22:23:54.831Z,2.83
2023-05-18T22:26:21.579Z,3.03
2023-05-18T22:28:48.415Z,3.95
2023-05-18T22:31:15.670Z,3.53
2023-05-18T22:33:42.370Z,3.83
2023-05-18T22:36:09.209Z,3.78
2023-05-18T22:38:35.921Z,4.88
2023-05-18T22:41:02.760Z,3.47
2023-05-18T22:43:29.794Z,3.88
2023-05-18T22:45:56.616Z,4.43
2023-05-18T22:48:25.355Z,3.63
2023-05-18T22:50:52.136Z,3.70
2023-05-18T22:53:18.850Z,3.97
2023-05-18T22:55:45.658Z,4.30
2023-05-18T22:58:12.359Z,4.30
2023-05-18T23:00:39.093Z,3.70
2023-05-18T23:03:06.061Z,4.20
2023-05-18T23:05:33.041Z,4.75
2023-05-18T23:07:59.854Z,4.03
2023-05-18T23:10:26.614Z,4.50
2023-05-18T23:12:55.607Z,4.60
2023-05-18T23:15:23.046Z,4.82
2023-05-18T23:17:50.165Z,5.00
2023-05-18T23:20:17.059Z,4.88
2023-05-18T23:22:43.988Z,3.95
2023-05-18T23:25:11.068Z,4.55
2023-05-18T23:27:37.835Z,4.97
2023-05-18T23:30:05.398Z,5.22
2023-05-18T23:32:32.583Z,4.57
2023-05-18T23:34:59.844Z,4.80
2023-05-18T23:37:26.830Z,5.20
2023-05-18T23:39:56.046Z,5.35
2023-05-18T23:42:24.564Z,5.10
2023-05-18T23:44:51.700Z,5.03
2023-05-18T23:47:19.050Z,5.40
2023-05-18T23:52:16.039Z,5.38
2023-05-18T23:54:45.458Z,6.15
2023-05-18T23:57:12.578Z,5.88
2023-05-18T23:59:40.915Z,5.13
